Time;durP1;ratioP1;P1;durP2;ratioP2;P2;SDS_P1;SDS_P2;PMS_P1;PMS_P2;Temp;Humidity;BMP_temperature;BMP_pressure;BME280_temperature;BME280_humidity;BME280_pressure;Samples;Min_cycle;Max_cycle;Signal;HPM_P1;HPM_P2
2024/02/12 12:23:45;;;;;;;11.40;3.60;;;;;;;17.83;45.71;96666.24;106733;1283;612218;-88
2024/02/12 12:26:51;;;;;;;7.30;2.80;;;;;;;17.70;44.85;96669.52;105557;1266;131843;-90
2024/02/12 12:29:24;;;;;;;13.40;3.60;;;;;;;17.51;45.30;96675.30;106047;1267;61247;-88
2024/02/12 12:31:59;;;;;;;11.40;3.20;;;;;;;17.36;45.45;96678.27;105716;1267;72706;-86
2024/02/12 12:39:55;;;;;;;12.20;2.90;;;;;;;17.19;46.68;96684.32;105618;1275;71707;-88
2024/02/12 12:58:49;;;;;;;6.80;1.90;;;;;;;17.48;44.43;96696.72;106102;1282;73546;31
2024/02/12 13:01:56;;;;;;;6.10;2.40;;;;;;;17.40;44.79;96702.84;106165;1291;59589;-89
2024/02/12 13:05:25;;;;;;;4.40;2.20;;;;;;;17.28;44.56;96711.27;106010;1293;61163;-90
2024/02/12 13:08:30;;;;;;;6.40;1.80;;;;;;;17.09;44.56;96718.19;103927;1302;71935;-90
2024/02/12 13:12:05;;;;;;;8.70;2.00;;;;;;;16.85;44.73;96719.75;104480;1291;72957;-92
2024/02/12 13:53:06;;;;;;;3.70;3.30;;;;;;;12.70;78.77;96800.23;104285;1288;72197;-91
2024/02/12 13:55:40;;;;;;;6.20;3.50;;;;;;;12.53;79.67;96805.53;105744;1290;71769;-87
2024/02/12 13:58:08;;;;;;;5.80;3.50;;;;;;;12.40;80.49;96807.54;106035;1288;59660;-90
2024/02/12 14:01:21;;;;;;;4.90;3.80;;;;;;;12.28;80.53;96815.34;106080;1295;61559;-94
2024/02/12 14:04:56;;;;;;;6.90;3.60;;;;;;;12.12;80.62;96827.13;105919;1289;72277;-91
2024/02/12 14:11:44;;;;;;;4.10;3.30;;;;;;;11.82;81.64;96835.86;106310;1282;71335;31
2024/02/12 14:21:54;;;;;;;;;;;;;;;11.52;83.51;96852.20;106226;1285;71719;-90
2024/02/12 14:36:32;;;;;;;3.80;3.20;;;;;;;11.26;83.53;96888.96;106153;1289;61299;-89
2024/02/12 14:40:23;;;;;;;4.00;2.10;;;;;;;11.25;83.75;96890.93;105735;1295;72179;-90
2024/02/12 14:48:32;;;;;;;6.00;2.40;;;;;;;11.14;84.07;96888.28;105303;1304;71190;-90
2024/02/12 14:51:54;;;;;;;2.50;2.10;;;;;;;11.07;84.48;96897.05;105439;1304;62772;-89
2024/02/12 15:08:40;;;;;;;5.30;2.70;;;;;;;10.90;85.32;96912.52;106898;1285;71496;-90
2024/02/12 15:11:19;;;;;;;4.20;3.10;;;;;;;10.84;85.49;96912.27;106075;1291;61090;-90
2024/02/12 15:13:54;;;;;;;6.50;2.90;;;;;;;10.80;85.42;96918.52;106023;1291;61289;-91
2024/02/12 15:16:35;;;;;;;3.70;2.30;;;;;;;10.78;85.61;96924.18;106112;1291;73519;-91
2024/02/12 15:19:10;;;;;;;4.70;2.90;;;;;;;10.76;85.48;96930.98;105803;1293;77171;-88
2024/02/12 15:21:37;;;;;;;6.00;3.10;;;;;;;10.73;85.89;96936.36;106025;1291;72597;-89
2024/02/12 15:24:15;;;;;;;5.30;2.90;;;;;;;10.74;85.98;96942.65;105931;1293;60608;-91
2024/02/12 15:27:00;;;;;;;3.90;2.30;;;;;;;10.70;85.76;96944.41;106003;1291;60926;-88
2024/02/12 15:29:41;;;;;;;7.20;2.70;;;;;;;10.68;85.79;96952.30;105967;1291;74070;-90
2024/02/12 15:32:12;;;;;;;6.50;3.10;;;;;;;10.66;85.86;96957.48;105959;1295;75614;-91
2024/02/12 15:35:13;;;;;;;3.20;2.40;;;;;;;10.64;85.69;96963.88;105914;1291;72088;-90
2024/02/12 15:38:44;;;;;;;2.90;2.70;;;;;;;10.60;85.80;96965.23;105964;1291;62591;-90
2024/02/12 15:42:27;;;;;;;5.50;2.20;;;;;;;10.51;85.82;96972.65;106056;1294;60037;-89
2024/02/12 15:45:43;;;;;;;3.40;2.80;;;;;;;10.43;86.13;96979.27;106095;1291;73112;-89
2024/02/12 15:48:38;;;;;;;3.60;2.90;;;;;;;10.35;86.46;96980.23;106624;1285;73139;-89
2024/02/12 15:52:14;;;;;;;;;;;;;;;;;;;;;
2024/02/12 15:57:18;;;;;;;;;;;;;;;;;;;;;
2024/02/12 16:01:30;;;;;;;;;;;;;;;;;;;;;
2024/02/12 16:16:40;;;;;;;;;;;;;;;;;;;;;
2024/02/12 16:57:43;;;;;;;;;;;;;;;;;;;;;
2024/02/12 17:10:29;;;;;;;;;;;;;;;;;;;;;
2024/02/12 18:04:52;;;;;;;;;;;;;;;;;;;;;
2024/02/12 19:26:29;;;;;;;5.30;4.20;;;;;;;9.38;90.21;97173.44;111273;1243;71316;-94
2024/02/12 22:14:11;;;;;;;;;;;;;;;;;;;;;
2024/02/12 22:38:03;;;;;;;5.40;4.90;;;;;;;9.60;94.01;97305.07;107119;1261;72724;-92
2024/02/12 22:42:29;;;;;;;6.00;5.10;;;;;;;9.49;93.92;97313.34;103031;1295;616453;-91
2024/02/12 22:45:41;;;;;;;4.90;4.40;;;;;;;9.35;94.05;97309.85;105347;1267;62721;-92
2024/02/12 22:48:27;;;;;;;6.70;5.40;;;;;;;9.27;94.79;97307.42;105963;1263;61062;-91
2024/02/12 22:51:50;;;;;;;13.50;10.20;;;;;;;9.18;95.54;97310.29;105758;1268;72897;-91
2024/02/12 22:54:27;;;;;;;30.70;24.10;;;;;;;9.12;96.09;97310.86;105538;1265;314297;-89
2024/02/12 22:57:27;;;;;;;13.70;12.40;;;;;;;9.04;96.83;97309.30;105221;1271;72810;-90
2024/02/12 23:00:34;;;;;;;15.30;9.70;;;;;;;8.96;97.64;97309.55;105084;1267;61152;-90
2024/02/12 23:03:16;;;;;;;7.90;6.60;;;;;;;8.90;98.54;97311.86;105033;1267;61331;-90
2024/02/12 23:05:47;;;;;;;9.00;7.80;;;;;;;8.83;99.29;97311.30;104826;1273;72032;-89
2024/02/12 23:08:13;;;;;;;7.80;6.70;;;;;;;8.79;99.94;97316.48;106582;1266;74474;-88
2024/02/12 23:10:40;;;;;;;8.20;6.30;;;;;;;8.74;100.00;97312.42;107865;1267;71220;-87
2024/02/12 23:13:09;;;;;;;7.30;6.60;;;;;;;8.70;100.00;97318.98;108656;1267;58784;-89
2024/02/12 23:15:37;;;;;;;6.00;5.40;;;;;;;8.63;100.00;97318.05;108625;1267;59054;-89
2024/02/12 23:18:04;;;;;;;7.00;5.70;;;;;;;8.58;100.00;97319.70;108530;1267;72025;-89
2024/02/12 23:20:31;;;;;;;6.30;5.50;;;;;;;8.55;100.00;97325.50;108240;1266;73166;-89
2024/02/12 23:22:58;;;;;;;5.60;5.00;;;;;;;8.52;100.00;97326.60;108663;1259;71765;-88
2024/02/12 23:25:24;;;;;;;6.70;5.90;;;;;;;8.49;100.00;97330.92;108405;1259;59310;-89
2024/02/12 23:27:52;;;;;;;5.90;5.20;;;;;;;8.47;100.00;97330.95;106981;1260;61053;-90
2024/02/12 23:30:19;;;;;;;4.80;4.30;;;;;;;8.44;100.00;97330.63;106029;1260;71799;-91
2024/02/12 23:32:51;;;;;;;6.40;5.80;;;;;;;8.42;100.00;97335.02;107374;1259;74614;-90
2024/02/12 23:35:19;;;;;;;7.30;5.60;;;;;;;8.41;100.00;97333.55;108824;1259;74028;-90
2024/02/12 23:37:48;;;;;;;7.60;6.30;;;;;;;8.38;100.00;97332.82;108944;1259;60499;-89
2024/02/12 23:40:19;;;;;;;6.60;5.60;;;;;;;8.37;100.00;97338.27;109211;1257;59264;-90
2024/02/12 23:42:55;;;;;;;6.70;6.00;;;;;;;8.37;100.00;97335.11;108997;1257;72395;-90
2024/02/12 23:45:24;;;;;;;7.20;5.40;;;;;;;8.36;100.00;97338.94;108182;1259;72461;-92
2024/02/12 23:47:58;;;;;;;7.90;6.50;;;;;;;8.34;100.00;97338.34;107028;1254;73784;-90
2024/02/12 23:50:51;;;;;;;6.10;5.50;;;;;;;8.31;100.00;97337.77;108883;1254;59667;-89
2024/02/12 23:53:35;;;;;;;5.70;4.80;;;;;;;8.29;100.00;97337.29;108804;1254;59305;-89
2024/02/12 23:56:43;;;;;;;5.80;5.10;;;;;;;8.27;100.00;97334.77;108991;1254;72362;-91
2024/02/12 23:59:22;;;;;;;6.40;5.70;;;;;;;8.25;100.00;97340.27;108705;1254;75267;-91
